Terminal Aerodrome Forecast
Issued by NWS Pittsburgh, PA

Current Version | Previous Version | Text Only | Print | Product List | Glossary Off
Versions: 1 2 3 4 5 6 7 8 9 10 11 12 13 14 15 16 17 18 19 20 21 22 23 24 25 26 27

000
FTUS41 KPBZ 270910 AAA
TAFPIT
TAF AMD
KPIT 270910Z 2709/2812 30006KT P6SM BKN045
     FM271500 30010G18KT P6SM VCSH BKN025
     FM272000 32012G22KT P6SM BKN035
     FM280000 36007KT P6SM SCT035=

USA.gov is the U.S. government's official web portal to all federal, state and local government web resources and services.